sensor_id;sensor_type;location;lat;lon;timestamp;P1;durP1;ratioP1;P2;durP2;ratioP2
9224;SDS011;4647;48.072;11.616;2022-09-14T00:00:38;4.97;;;2.70;;
9224;SDS011;4647;48.072;11.616;2022-09-14T00:03:05;6.63;;;3.10;;
9224;SDS011;4647;48.072;11.616;2022-09-14T00:05:33;4.80;;;3.00;;
9224;SDS011;4647;48.072;11.616;2022-09-14T00:08:00;7.03;;;3.27;;
9224;SDS011;4647;48.072;11.616;2022-09-14T00:10:27;6.47;;;3.00;;
9224;SDS011;4647;48.072;11.616;2022-09-14T00:12:56;3.00;;;2.50;;
9224;SDS011;4647;48.072;11.616;2022-09-14T00:15:24;6.43;;;2.90;;
9224;SDS011;4647;48.072;11.616;2022-09-14T00:17:52;4.23;;;2.87;;
9224;SDS011;4647;48.072;11.616;2022-09-14T00:20:19;9.40;;;2.97;;
9224;SDS011;4647;48.072;11.616;2022-09-14T00:22:46;8.47;;;3.17;;
9224;SDS011;4647;48.072;11.616;2022-09-14T00:25:13;3.33;;;2.90;;
9224;SDS011;4647;48.072;11.616;2022-09-14T00:27:40;4.90;;;3.20;;
9224;SDS011;4647;48.072;11.616;2022-09-14T00:30:09;4.07;;;3.20;;
9224;SDS011;4647;48.072;11.616;2022-09-14T00:32:36;4.03;;;3.20;;
9224;SDS011;4647;48.072;11.616;2022-09-14T00:35:03;4.23;;;2.90;;
9224;SDS011;4647;48.072;11.616;2022-09-14T00:37:31;4.90;;;2.90;;
9224;SDS011;4647;48.072;11.616;2022-09-14T00:39:58;3.60;;;3.00;;
9224;SDS011;4647;48.072;11.616;2022-09-14T00:42:25;5.03;;;3.13;;
9224;SDS011;4647;48.072;11.616;2022-09-14T00:45:00;4.93;;;3.27;;
9224;SDS011;4647;48.072;11.616;2022-09-14T00:47:33;5.50;;;3.00;;
9224;SDS011;4647;48.072;11.616;2022-09-14T00:50:00;4.27;;;3.27;;
9224;SDS011;4647;48.072;11.616;2022-09-14T00:52:29;7.00;;;3.17;;
9224;SDS011;4647;48.072;11.616;2022-09-14T00:54:59;4.93;;;3.10;;
9224;SDS011;4647;48.072;11.616;2022-09-14T00:57:32;3.87;;;2.90;;
9224;SDS011;4647;48.072;11.616;2022-09-14T01:00:03;5.97;;;3.23;;
9224;SDS011;4647;48.072;11.616;2022-09-14T01:02:34;3.63;;;2.70;;
9224;SDS011;4647;48.072;11.616;2022-09-14T01:05:01;3.83;;;2.90;;
9224;SDS011;4647;48.072;11.616;2022-09-14T01:07:32;3.87;;;3.30;;
9224;SDS011;4647;48.072;11.616;2022-09-14T01:10:27;4.30;;;2.90;;
9224;SDS011;4647;48.072;11.616;2022-09-14T01:13:08;10.93;;;3.10;;
9224;SDS011;4647;48.072;11.616;2022-09-14T01:15:44;5.77;;;3.10;;
9224;SDS011;4647;48.072;11.616;2022-09-14T01:18:20;3.33;;;3.03;;
9224;SDS011;4647;48.072;11.616;2022-09-14T01:20:52;3.23;;;2.97;;
9224;SDS011;4647;48.072;11.616;2022-09-14T01:23:26;4.87;;;2.80;;
9224;SDS011;4647;48.072;11.616;2022-09-14T01:28:56;7.73;;;3.03;;
9224;SDS011;4647;48.072;11.616;2022-09-14T01:31:28;4.80;;;2.93;;
9224;SDS011;4647;48.072;11.616;2022-09-14T01:34:00;4.77;;;3.30;;
9224;SDS011;4647;48.072;11.616;2022-09-14T01:36:35;6.57;;;3.17;;
9224;SDS011;4647;48.072;11.616;2022-09-14T01:39:05;3.20;;;2.90;;
9224;SDS011;4647;48.072;11.616;2022-09-14T01:41:33;4.07;;;3.10;;
9224;SDS011;4647;48.072;11.616;2022-09-14T01:44:04;5.73;;;3.00;;
9224;SDS011;4647;48.072;11.616;2022-09-14T01:46:36;4.93;;;3.20;;
9224;SDS011;4647;48.072;11.616;2022-09-14T01:49:06;3.90;;;3.10;;
9224;SDS011;4647;48.072;11.616;2022-09-14T01:51:37;5.30;;;3.10;;
9224;SDS011;4647;48.072;11.616;2022-09-14T01:54:08;3.20;;;2.90;;
9224;SDS011;4647;48.072;11.616;2022-09-14T01:56:41;3.10;;;2.80;;
9224;SDS011;4647;48.072;11.616;2022-09-14T01:59:15;4.17;;;3.00;;
9224;SDS011;4647;48.072;11.616;2022-09-14T02:01:47;7.17;;;2.80;;
9224;SDS011;4647;48.072;11.616;2022-09-14T02:04:20;3.20;;;2.90;;
9224;SDS011;4647;48.072;11.616;2022-09-14T02:06:52;3.53;;;2.63;;
9224;SDS011;4647;48.072;11.616;2022-09-14T02:09:20;2.97;;;2.60;;
9224;SDS011;4647;48.072;11.616;2022-09-14T02:11:51;5.53;;;2.30;;
9224;SDS011;4647;48.072;11.616;2022-09-14T02:14:20;6.53;;;2.70;;
9224;SDS011;4647;48.072;11.616;2022-09-14T02:16:47;4.97;;;2.77;;
9224;SDS011;4647;48.072;11.616;2022-09-14T02:19:15;3.97;;;2.50;;
9224;SDS011;4647;48.072;11.616;2022-09-14T02:21:42;3.77;;;2.30;;
9224;SDS011;4647;48.072;11.616;2022-09-14T02:24:09;3.57;;;2.23;;
9224;SDS011;4647;48.072;11.616;2022-09-14T02:26:37;6.33;;;2.30;;
9224;SDS011;4647;48.072;11.616;2022-09-14T02:29:05;5.53;;;2.20;;
9224;SDS011;4647;48.072;11.616;2022-09-14T02:31:36;2.70;;;2.00;;
9224;SDS011;4647;48.072;11.616;2022-09-14T02:34:16;2.77;;;2.20;;
9224;SDS011;4647;48.072;11.616;2022-09-14T02:36:54;3.30;;;2.20;;
9224;SDS011;4647;48.072;11.616;2022-09-14T02:39:26;2.20;;;2.00;;
9224;SDS011;4647;48.072;11.616;2022-09-14T02:42:03;4.87;;;2.07;;
9224;SDS011;4647;48.072;11.616;2022-09-14T02:44:40;2.27;;;1.93;;
9224;SDS011;4647;48.072;11.616;2022-09-14T02:47:14;2.40;;;2.20;;
9224;SDS011;4647;48.072;11.616;2022-09-14T02:49:46;2.60;;;1.90;;
9224;SDS011;4647;48.072;11.616;2022-09-14T02:52:18;3.90;;;2.40;;
9224;SDS011;4647;48.072;11.616;2022-09-14T02:54:54;4.10;;;2.67;;
9224;SDS011;4647;48.072;11.616;2022-09-14T02:57:24;4.83;;;2.27;;
9224;SDS011;4647;48.072;11.616;2022-09-14T02:59:52;3.87;;;2.37;;
9224;SDS011;4647;48.072;11.616;2022-09-14T03:02:20;2.30;;;2.10;;
9224;SDS011;4647;48.072;11.616;2022-09-14T03:04:47;5.07;;;2.37;;
9224;SDS011;4647;48.072;11.616;2022-09-14T03:07:14;4.57;;;2.10;;
9224;SDS011;4647;48.072;11.616;2022-09-14T03:09:41;4.63;;;2.20;;
9224;SDS011;4647;48.072;11.616;2022-09-14T03:12:08;2.40;;;2.20;;
9224;SDS011;4647;48.072;11.616;2022-09-14T03:14:35;4.67;;;2.23;;
9224;SDS011;4647;48.072;11.616;2022-09-14T03:17:02;4.77;;;2.23;;
9224;SDS011;4647;48.072;11.616;2022-09-14T03:19:30;4.40;;;2.27;;
9224;SDS011;4647;48.072;11.616;2022-09-14T03:21:57;5.30;;;2.40;;
9224;SDS011;4647;48.072;11.616;2022-09-14T03:24:24;5.50;;;2.10;;
9224;SDS011;4647;48.072;11.616;2022-09-14T03:26:51;2.07;;;1.97;;
9224;SDS011;4647;48.072;11.616;2022-09-14T03:29:18;3.57;;;1.90;;
9224;SDS011;4647;48.072;11.616;2022-09-14T03:31:45;2.57;;;2.00;;
9224;SDS011;4647;48.072;11.616;2022-09-14T03:34:12;2.17;;;1.83;;
9224;SDS011;4647;48.072;11.616;2022-09-14T03:36:40;4.63;;;2.17;;
9224;SDS011;4647;48.072;11.616;2022-09-14T03:39:07;5.70;;;2.20;;
9224;SDS011;4647;48.072;11.616;2022-09-14T03:41:34;1.73;;;1.60;;
9224;SDS011;4647;48.072;11.616;2022-09-14T03:44:01;2.17;;;1.90;;
9224;SDS011;4647;48.072;11.616;2022-09-14T03:46:28;2.33;;;1.97;;
9224;SDS011;4647;48.072;11.616;2022-09-14T03:48:55;4.37;;;2.00;;
9224;SDS011;4647;48.072;11.616;2022-09-14T03:51:22;3.40;;;2.17;;
9224;SDS011;4647;48.072;11.616;2022-09-14T03:53:50;4.70;;;2.00;;
9224;SDS011;4647;48.072;11.616;2022-09-14T03:56:18;4.77;;;2.30;;
9224;SDS011;4647;48.072;11.616;2022-09-14T03:58:46;4.30;;;2.13;;
9224;SDS011;4647;48.072;11.616;2022-09-14T04:01:15;3.93;;;2.20;;
9224;SDS011;4647;48.072;11.616;2022-09-14T04:03:43;2.07;;;1.93;;
9224;SDS011;4647;48.072;11.616;2022-09-14T04:06:10;6.83;;;2.10;;
9224;SDS011;4647;48.072;11.616;2022-09-14T04:08:39;2.57;;;2.00;;
9224;SDS011;4647;48.072;11.616;2022-09-14T04:11:08;6.23;;;2.00;;
9224;SDS011;4647;48.072;11.616;2022-09-14T04:13:37;2.20;;;1.90;;
9224;SDS011;4647;48.072;11.616;2022-09-14T04:16:04;2.83;;;2.00;;
9224;SDS011;4647;48.072;11.616;2022-09-14T04:18:31;3.07;;;1.97;;
9224;SDS011;4647;48.072;11.616;2022-09-14T04:20:59;4.60;;;2.10;;
9224;SDS011;4647;48.072;11.616;2022-09-14T04:23:28;19.20;;;5.87;;
9224;SDS011;4647;48.072;11.616;2022-09-14T04:25:55;14.87;;;5.07;;
9224;SDS011;4647;48.072;11.616;2022-09-14T04:28:23;8.47;;;3.57;;
9224;SDS011;4647;48.072;11.616;2022-09-14T04:30:53;6.40;;;2.27;;
9224;SDS011;4647;48.072;11.616;2022-09-14T04:33:21;4.33;;;2.30;;
9224;SDS011;4647;48.072;11.616;2022-09-14T04:35:54;4.93;;;2.43;;
9224;SDS011;4647;48.072;11.616;2022-09-14T04:38:22;2.57;;;2.00;;
9224;SDS011;4647;48.072;11.616;2022-09-14T04:40:49;3.83;;;2.53;;
9224;SDS011;4647;48.072;11.616;2022-09-14T04:43:16;3.10;;;1.87;;
9224;SDS011;4647;48.072;11.616;2022-09-14T04:45:45;2.33;;;1.80;;
9224;SDS011;4647;48.072;11.616;2022-09-14T04:48:12;5.73;;;1.97;;
9224;SDS011;4647;48.072;11.616;2022-09-14T04:50:39;3.20;;;2.00;;
9224;SDS011;4647;48.072;11.616;2022-09-14T04:53:06;4.73;;;1.87;;
9224;SDS011;4647;48.072;11.616;2022-09-14T04:55:33;2.30;;;1.83;;
9224;SDS011;4647;48.072;11.616;2022-09-14T04:58:00;5.67;;;2.37;;
9224;SDS011;4647;48.072;11.616;2022-09-14T05:00:27;5.50;;;1.97;;
9224;SDS011;4647;48.072;11.616;2022-09-14T05:02:56;4.83;;;1.70;;
9224;SDS011;4647;48.072;11.616;2022-09-14T05:05:23;5.90;;;2.10;;
9224;SDS011;4647;48.072;11.616;2022-09-14T05:07:49;3.53;;;2.00;;
9224;SDS011;4647;48.072;11.616;2022-09-14T05:10:16;3.87;;;1.47;;
9224;SDS011;4647;48.072;11.616;2022-09-14T05:12:43;3.53;;;1.70;;
9224;SDS011;4647;48.072;11.616;2022-09-14T05:15:10;3.40;;;1.77;;
9224;SDS011;4647;48.072;11.616;2022-09-14T05:17:37;4.87;;;1.90;;
9224;SDS011;4647;48.072;11.616;2022-09-14T05:20:06;7.30;;;2.00;;
9224;SDS011;4647;48.072;11.616;2022-09-14T05:22:34;2.80;;;1.80;;
9224;SDS011;4647;48.072;11.616;2022-09-14T05:25:00;6.00;;;2.30;;
9224;SDS011;4647;48.072;11.616;2022-09-14T05:27:27;3.47;;;1.80;;
9224;SDS011;4647;48.072;11.616;2022-09-14T05:29:54;2.87;;;1.80;;
9224;SDS011;4647;48.072;11.616;2022-09-14T05:32:21;2.30;;;1.53;;
9224;SDS011;4647;48.072;11.616;2022-09-14T05:34:48;3.10;;;1.77;;
9224;SDS011;4647;48.072;11.616;2022-09-14T05:37:16;5.90;;;2.03;;
9224;SDS011;4647;48.072;11.616;2022-09-14T05:39:43;4.40;;;1.80;;
9224;SDS011;4647;48.072;11.616;2022-09-14T05:42:10;3.97;;;1.80;;
9224;SDS011;4647;48.072;11.616;2022-09-14T05:44:37;6.97;;;2.10;;
9224;SDS011;4647;48.072;11.616;2022-09-14T05:47:04;7.13;;;2.03;;
9224;SDS011;4647;48.072;11.616;2022-09-14T05:49:31;4.37;;;1.70;;
9224;SDS011;4647;48.072;11.616;2022-09-14T05:51:58;4.10;;;1.80;;
9224;SDS011;4647;48.072;11.616;2022-09-14T05:54:26;5.80;;;2.00;;
9224;SDS011;4647;48.072;11.616;2022-09-14T05:56:53;3.33;;;2.30;;
9224;SDS011;4647;48.072;11.616;2022-09-14T05:59:20;7.70;;;2.40;;
9224;SDS011;4647;48.072;11.616;2022-09-14T06:01:46;4.07;;;2.03;;
9224;SDS011;4647;48.072;11.616;2022-09-14T06:04:13;3.20;;;1.90;;
9224;SDS011;4647;48.072;11.616;2022-09-14T06:06:40;4.47;;;2.00;;
9224;SDS011;4647;48.072;11.616;2022-09-14T06:09:07;6.00;;;2.07;;
9224;SDS011;4647;48.072;11.616;2022-09-14T06:11:35;7.17;;;2.30;;
9224;SDS011;4647;48.072;11.616;2022-09-14T06:14:03;5.43;;;2.00;;
9224;SDS011;4647;48.072;11.616;2022-09-14T06:16:30;6.07;;;1.97;;
9224;SDS011;4647;48.072;11.616;2022-09-14T06:18:58;7.43;;;2.27;;
9224;SDS011;4647;48.072;11.616;2022-09-14T06:21:27;7.23;;;1.80;;
9224;SDS011;4647;48.072;11.616;2022-09-14T06:23:55;2.80;;;1.90;;
9224;SDS011;4647;48.072;11.616;2022-09-14T06:26:22;4.07;;;1.97;;
9224;SDS011;4647;48.072;11.616;2022-09-14T06:28:51;6.93;;;1.93;;
9224;SDS011;4647;48.072;11.616;2022-09-14T06:31:18;5.07;;;2.43;;
9224;SDS011;4647;48.072;11.616;2022-09-14T06:33:47;4.13;;;1.93;;
9224;SDS011;4647;48.072;11.616;2022-09-14T06:36:16;3.83;;;2.20;;
9224;SDS011;4647;48.072;11.616;2022-09-14T06:38:47;4.03;;;1.80;;
9224;SDS011;4647;48.072;11.616;2022-09-14T06:41:15;5.30;;;2.60;;
9224;SDS011;4647;48.072;11.616;2022-09-14T06:43:44;9.93;;;2.60;;
9224;SDS011;4647;48.072;11.616;2022-09-14T06:46:13;8.87;;;3.13;;
9224;SDS011;4647;48.072;11.616;2022-09-14T06:48:44;8.40;;;3.23;;
9224;SDS011;4647;48.072;11.616;2022-09-14T06:51:12;9.03;;;2.97;;
9224;SDS011;4647;48.072;11.616;2022-09-14T06:53:41;9.60;;;3.07;;
9224;SDS011;4647;48.072;11.616;2022-09-14T06:56:08;5.03;;;2.33;;
9224;SDS011;4647;48.072;11.616;2022-09-14T06:58:35;5.70;;;2.10;;
9224;SDS011;4647;48.072;11.616;2022-09-14T07:01:03;5.53;;;2.40;;
9224;SDS011;4647;48.072;11.616;2022-09-14T07:03:34;10.80;;;2.67;;
9224;SDS011;4647;48.072;11.616;2022-09-14T07:06:02;5.47;;;2.37;;
9224;SDS011;4647;48.072;11.616;2022-09-14T07:08:31;7.57;;;2.27;;
9224;SDS011;4647;48.072;11.616;2022-09-14T07:10:58;6.90;;;2.43;;
9224;SDS011;4647;48.072;11.616;2022-09-14T07:13:26;6.83;;;2.40;;
9224;SDS011;4647;48.072;11.616;2022-09-14T07:15:53;9.23;;;2.07;;
9224;SDS011;4647;48.072;11.616;2022-09-14T07:18:20;8.13;;;3.17;;
9224;SDS011;4647;48.072;11.616;2022-09-14T07:20:53;5.53;;;2.47;;
9224;SDS011;4647;48.072;11.616;2022-09-14T07:23:20;5.70;;;2.67;;
9224;SDS011;4647;48.072;11.616;2022-09-14T07:25:47;6.07;;;2.33;;
9224;SDS011;4647;48.072;11.616;2022-09-14T07:28:25;4.40;;;1.93;;
9224;SDS011;4647;48.072;11.616;2022-09-14T07:30:53;5.93;;;2.40;;
9224;SDS011;4647;48.072;11.616;2022-09-14T07:33:20;3.33;;;1.80;;
9224;SDS011;4647;48.072;11.616;2022-09-14T07:35:47;3.53;;;2.13;;
9224;SDS011;4647;48.072;11.616;2022-09-14T07:38:15;6.80;;;1.90;;
9224;SDS011;4647;48.072;11.616;2022-09-14T07:40:42;4.03;;;1.80;;
9224;SDS011;4647;48.072;11.616;2022-09-14T07:43:10;5.27;;;1.97;;
9224;SDS011;4647;48.072;11.616;2022-09-14T07:45:37;3.43;;;1.70;;
9224;SDS011;4647;48.072;11.616;2022-09-14T07:48:05;6.63;;;2.07;;
9224;SDS011;4647;48.072;11.616;2022-09-14T07:50:31;3.17;;;1.73;;
9224;SDS011;4647;48.072;11.616;2022-09-14T07:52:58;3.77;;;1.67;;
9224;SDS011;4647;48.072;11.616;2022-09-14T07:55:27;3.93;;;1.70;;
9224;SDS011;4647;48.072;11.616;2022-09-14T07:57:54;6.93;;;1.80;;
9224;SDS011;4647;48.072;11.616;2022-09-14T08:00:21;6.93;;;1.90;;
9224;SDS011;4647;48.072;11.616;2022-09-14T08:02:50;3.03;;;1.57;;
9224;SDS011;4647;48.072;11.616;2022-09-14T08:05:17;5.73;;;2.00;;
9224;SDS011;4647;48.072;11.616;2022-09-14T08:07:45;6.03;;;1.77;;
9224;SDS011;4647;48.072;11.616;2022-09-14T08:10:12;6.53;;;1.80;;
9224;SDS011;4647;48.072;11.616;2022-09-14T08:12:40;5.33;;;1.90;;
9224;SDS011;4647;48.072;11.616;2022-09-14T08:15:07;3.53;;;1.80;;
9224;SDS011;4647;48.072;11.616;2022-09-14T08:17:35;5.33;;;1.80;;
9224;SDS011;4647;48.072;11.616;2022-09-14T08:20:03;6.33;;;1.83;;
9224;SDS011;4647;48.072;11.616;2022-09-14T08:22:31;3.10;;;1.67;;
9224;SDS011;4647;48.072;11.616;2022-09-14T08:24:57;2.27;;;1.70;;
9224;SDS011;4647;48.072;11.616;2022-09-14T08:27:24;8.40;;;1.80;;
9224;SDS011;4647;48.072;11.616;2022-09-14T08:29:53;3.13;;;1.57;;
9224;SDS011;4647;48.072;11.616;2022-09-14T08:32:20;4.33;;;1.70;;
9224;SDS011;4647;48.072;11.616;2022-09-14T08:34:46;6.83;;;1.70;;
9224;SDS011;4647;48.072;11.616;2022-09-14T08:37:16;5.20;;;1.70;;
9224;SDS011;4647;48.072;11.616;2022-09-14T08:39:43;4.40;;;1.63;;
9224;SDS011;4647;48.072;11.616;2022-09-14T08:42:12;4.33;;;1.80;;
9224;SDS011;4647;48.072;11.616;2022-09-14T08:44:42;3.57;;;1.77;;
9224;SDS011;4647;48.072;11.616;2022-09-14T08:47:15;6.37;;;1.90;;
9224;SDS011;4647;48.072;11.616;2022-09-14T08:49:44;5.93;;;1.70;;
9224;SDS011;4647;48.072;11.616;2022-09-14T08:52:17;3.37;;;1.60;;
9224;SDS011;4647;48.072;11.616;2022-09-14T08:54:50;6.93;;;1.80;;
9224;SDS011;4647;48.072;11.616;2022-09-14T08:57:22;4.33;;;1.73;;
9224;SDS011;4647;48.072;11.616;2022-09-14T08:59:55;6.70;;;1.83;;
9224;SDS011;4647;48.072;11.616;2022-09-14T09:02:38;5.33;;;1.73;;
9224;SDS011;4647;48.072;11.616;2022-09-14T09:05:24;5.17;;;1.87;;
9224;SDS011;4647;48.072;11.616;2022-09-14T09:08:02;5.53;;;2.00;;
9224;SDS011;4647;48.072;11.616;2022-09-14T09:10:36;6.87;;;2.00;;
9224;SDS011;4647;48.072;11.616;2022-09-14T09:13:06;6.00;;;1.77;;
9224;SDS011;4647;48.072;11.616;2022-09-14T09:15:39;5.73;;;1.63;;
9224;SDS011;4647;48.072;11.616;2022-09-14T09:18:14;5.43;;;2.07;;
9224;SDS011;4647;48.072;11.616;2022-09-14T09:20:46;4.27;;;2.27;;
9224;SDS011;4647;48.072;11.616;2022-09-14T09:23:16;3.77;;;1.73;;
9224;SDS011;4647;48.072;11.616;2022-09-14T09:25:48;4.63;;;2.00;;
9224;SDS011;4647;48.072;11.616;2022-09-14T09:28:18;3.63;;;2.10;;
9224;SDS011;4647;48.072;11.616;2022-09-14T09:30:46;7.87;;;2.07;;
9224;SDS011;4647;48.072;11.616;2022-09-14T09:33:16;4.37;;;2.03;;
9224;SDS011;4647;48.072;11.616;2022-09-14T09:35:46;3.87;;;2.10;;
9224;SDS011;4647;48.072;11.616;2022-09-14T09:38:14;3.70;;;1.80;;
9224;SDS011;4647;48.072;11.616;2022-09-14T09:40:43;6.17;;;2.00;;
9224;SDS011;4647;48.072;11.616;2022-09-14T09:43:14;5.50;;;2.20;;
9224;SDS011;4647;48.072;11.616;2022-09-14T09:45:53;5.27;;;1.80;;
9224;SDS011;4647;48.072;11.616;2022-09-14T09:48:24;4.50;;;1.80;;
9224;SDS011;4647;48.072;11.616;2022-09-14T09:50:59;3.57;;;1.60;;
9224;SDS011;4647;48.072;11.616;2022-09-14T09:53:29;5.57;;;1.70;;
9224;SDS011;4647;48.072;11.616;2022-09-14T09:55:58;4.20;;;2.10;;
9224;SDS011;4647;48.072;11.616;2022-09-14T09:58:28;2.67;;;1.90;;
9224;SDS011;4647;48.072;11.616;2022-09-14T10:00:57;9.13;;;2.03;;
9224;SDS011;4647;48.072;11.616;2022-09-14T10:03:28;5.67;;;2.00;;
9224;SDS011;4647;48.072;11.616;2022-09-14T10:06:01;5.93;;;2.03;;
9224;SDS011;4647;48.072;11.616;2022-09-14T10:08:30;6.10;;;2.27;;
9224;SDS011;4647;48.072;11.616;2022-09-14T10:10:59;4.10;;;2.13;;
9224;SDS011;4647;48.072;11.616;2022-09-14T10:13:28;2.30;;;1.50;;
9224;SDS011;4647;48.072;11.616;2022-09-14T10:16:06;5.60;;;1.80;;
9224;SDS011;4647;48.072;11.616;2022-09-14T10:18:44;7.00;;;2.10;;
9224;SDS011;4647;48.072;11.616;2022-09-14T10:21:13;5.40;;;2.20;;
9224;SDS011;4647;48.072;11.616;2022-09-14T10:23:42;6.87;;;1.97;;
9224;SDS011;4647;48.072;11.616;2022-09-14T10:26:17;5.57;;;1.87;;
9224;SDS011;4647;48.072;11.616;2022-09-14T10:28:48;3.93;;;1.80;;
9224;SDS011;4647;48.072;11.616;2022-09-14T10:31:17;6.53;;;2.33;;
9224;SDS011;4647;48.072;11.616;2022-09-14T10:33:52;6.20;;;2.07;;
9224;SDS011;4647;48.072;11.616;2022-09-14T10:36:22;4.70;;;2.20;;
9224;SDS011;4647;48.072;11.616;2022-09-14T10:38:52;7.23;;;1.90;;
9224;SDS011;4647;48.072;11.616;2022-09-14T10:41:23;6.90;;;2.00;;
9224;SDS011;4647;48.072;11.616;2022-09-14T10:44:00;3.73;;;2.03;;
9224;SDS011;4647;48.072;11.616;2022-09-14T10:46:47;4.60;;;2.17;;
9224;SDS011;4647;48.072;11.616;2022-09-14T10:49:34;7.23;;;2.37;;
9224;SDS011;4647;48.072;11.616;2022-09-14T10:52:13;6.73;;;2.00;;
9224;SDS011;4647;48.072;11.616;2022-09-14T10:57:46;5.87;;;1.90;;
9224;SDS011;4647;48.072;11.616;2022-09-14T11:00:18;4.53;;;2.00;;
9224;SDS011;4647;48.072;11.616;2022-09-14T11:03:10;5.27;;;2.03;;
9224;SDS011;4647;48.072;11.616;2022-09-14T11:05:48;7.90;;;2.07;;
9224;SDS011;4647;48.072;11.616;2022-09-14T11:08:26;5.53;;;2.23;;
9224;SDS011;4647;48.072;11.616;2022-09-14T11:11:13;6.17;;;2.10;;
9224;SDS011;4647;48.072;11.616;2022-09-14T11:13:52;6.27;;;2.20;;
9224;SDS011;4647;48.072;11.616;2022-09-14T11:16:30;6.83;;;1.93;;
9224;SDS011;4647;48.072;11.616;2022-09-14T11:19:15;4.37;;;1.80;;
9224;SDS011;4647;48.072;11.616;2022-09-14T11:21:51;6.47;;;2.27;;
9224;SDS011;4647;48.072;11.616;2022-09-14T11:24:23;6.40;;;2.33;;
9224;SDS011;4647;48.072;11.616;2022-09-14T11:26:58;7.37;;;2.20;;
9224;SDS011;4647;48.072;11.616;2022-09-14T11:29:29;3.93;;;2.00;;
9224;SDS011;4647;48.072;11.616;2022-09-14T11:32:00;5.50;;;2.10;;
9224;SDS011;4647;48.072;11.616;2022-09-14T11:34:32;4.73;;;2.00;;
9224;SDS011;4647;48.072;11.616;2022-09-14T11:37:05;6.60;;;2.43;;
9224;SDS011;4647;48.072;11.616;2022-09-14T11:39:36;6.20;;;2.30;;
9224;SDS011;4647;48.072;11.616;2022-09-14T11:42:08;5.93;;;2.00;;
9224;SDS011;4647;48.072;11.616;2022-09-14T11:44:39;3.40;;;1.70;;
9224;SDS011;4647;48.072;11.616;2022-09-14T11:47:10;4.10;;;1.90;;
9224;SDS011;4647;48.072;11.616;2022-09-14T11:49:45;6.67;;;2.10;;
9224;SDS011;4647;48.072;11.616;2022-09-14T11:52:21;5.27;;;1.77;;
9224;SDS011;4647;48.072;11.616;2022-09-14T11:54:50;6.17;;;2.10;;
9224;SDS011;4647;48.072;11.616;2022-09-14T11:57:18;4.40;;;1.93;;
9224;SDS011;4647;48.072;11.616;2022-09-14T11:59:49;4.83;;;2.10;;
9224;SDS011;4647;48.072;11.616;2022-09-14T12:05:22;3.90;;;1.97;;
9224;SDS011;4647;48.072;11.616;2022-09-14T12:07:58;3.60;;;1.80;;
9224;SDS011;4647;48.072;11.616;2022-09-14T12:10:30;7.27;;;2.33;;
9224;SDS011;4647;48.072;11.616;2022-09-14T12:13:18;2.77;;;1.80;;
9224;SDS011;4647;48.072;11.616;2022-09-14T12:15:45;5.10;;;2.00;;
9224;SDS011;4647;48.072;11.616;2022-09-14T12:18:20;7.57;;;1.97;;
9224;SDS011;4647;48.072;11.616;2022-09-14T12:20:48;4.67;;;1.83;;
9224;SDS011;4647;48.072;11.616;2022-09-14T12:23:42;8.87;;;1.83;;
9224;SDS011;4647;48.072;11.616;2022-09-14T12:44:28;5.67;;;2.23;;
9224;SDS011;4647;48.072;11.616;2022-09-14T12:46:57;6.67;;;1.97;;
9224;SDS011;4647;48.072;11.616;2022-09-14T12:49:45;3.10;;;1.87;;
9224;SDS011;4647;48.072;11.616;2022-09-14T12:52:23;5.77;;;2.03;;
9224;SDS011;4647;48.072;11.616;2022-09-14T12:55:03;5.53;;;1.77;;
9224;SDS011;4647;48.072;11.616;2022-09-14T12:57:44;5.23;;;1.90;;
9224;SDS011;4647;48.072;11.616;2022-09-14T13:00:16;3.40;;;1.97;;
9224;SDS011;4647;48.072;11.616;2022-09-14T13:02:49;8.33;;;2.37;;
9224;SDS011;4647;48.072;11.616;2022-09-14T13:05:25;3.30;;;1.97;;
9224;SDS011;4647;48.072;11.616;2022-09-14T13:07:54;4.77;;;1.90;;
9224;SDS011;4647;48.072;11.616;2022-09-14T13:10:23;2.43;;;1.80;;
9224;SDS011;4647;48.072;11.616;2022-09-14T13:12:55;8.70;;;2.00;;
9224;SDS011;4647;48.072;11.616;2022-09-14T13:15:24;4.27;;;1.93;;
9224;SDS011;4647;48.072;11.616;2022-09-14T13:17:57;9.37;;;2.03;;
9224;SDS011;4647;48.072;11.616;2022-09-14T13:20:25;6.90;;;1.90;;
9224;SDS011;4647;48.072;11.616;2022-09-14T13:22:52;3.80;;;2.07;;
9224;SDS011;4647;48.072;11.616;2022-09-14T13:25:29;4.47;;;1.73;;
9224;SDS011;4647;48.072;11.616;2022-09-14T13:27:59;5.27;;;2.37;;
9224;SDS011;4647;48.072;11.616;2022-09-14T13:30:28;5.23;;;2.00;;
9224;SDS011;4647;48.072;11.616;2022-09-14T13:32:56;5.37;;;2.10;;
9224;SDS011;4647;48.072;11.616;2022-09-14T13:35:26;8.10;;;2.13;;
9224;SDS011;4647;48.072;11.616;2022-09-14T13:37:56;8.07;;;2.17;;
9224;SDS011;4647;48.072;11.616;2022-09-14T13:40:24;4.93;;;1.80;;
9224;SDS011;4647;48.072;11.616;2022-09-14T13:42:55;4.37;;;1.73;;
9224;SDS011;4647;48.072;11.616;2022-09-14T13:45:23;6.20;;;2.20;;
9224;SDS011;4647;48.072;11.616;2022-09-14T13:47:51;5.27;;;2.17;;
9224;SDS011;4647;48.072;11.616;2022-09-14T13:50:19;6.20;;;1.93;;
9224;SDS011;4647;48.072;11.616;2022-09-14T13:52:49;3.77;;;2.03;;
9224;SDS011;4647;48.072;11.616;2022-09-14T13:55:19;5.70;;;2.17;;
9224;SDS011;4647;48.072;11.616;2022-09-14T13:58:11;3.87;;;1.80;;
9224;SDS011;4647;48.072;11.616;2022-09-14T14:00:47;3.60;;;2.10;;
9224;SDS011;4647;48.072;11.616;2022-09-14T14:03:23;3.57;;;2.00;;
9224;SDS011;4647;48.072;11.616;2022-09-14T14:05:55;9.93;;;2.23;;
9224;SDS011;4647;48.072;11.616;2022-09-14T14:08:25;8.23;;;1.90;;
9224;SDS011;4647;48.072;11.616;2022-09-14T14:10:55;6.43;;;2.13;;
9224;SDS011;4647;48.072;11.616;2022-09-14T14:13:26;4.10;;;1.80;;
9224;SDS011;4647;48.072;11.616;2022-09-14T14:15:55;4.43;;;1.90;;
9224;SDS011;4647;48.072;11.616;2022-09-14T14:18:39;4.17;;;2.10;;
9224;SDS011;4647;48.072;11.616;2022-09-14T14:21:12;6.90;;;1.87;;
9224;SDS011;4647;48.072;11.616;2022-09-14T14:23:41;7.63;;;2.10;;
9224;SDS011;4647;48.072;11.616;2022-09-14T14:26:09;6.23;;;2.07;;
9224;SDS011;4647;48.072;11.616;2022-09-14T14:28:41;6.40;;;1.93;;
9224;SDS011;4647;48.072;11.616;2022-09-14T14:31:11;5.80;;;1.60;;
9224;SDS011;4647;48.072;11.616;2022-09-14T14:33:43;3.73;;;2.00;;
9224;SDS011;4647;48.072;11.616;2022-09-14T14:36:11;6.13;;;2.00;;
9224;SDS011;4647;48.072;11.616;2022-09-14T14:38:39;6.40;;;2.10;;
9224;SDS011;4647;48.072;11.616;2022-09-14T14:41:08;5.10;;;1.90;;
9224;SDS011;4647;48.072;11.616;2022-09-14T14:43:39;5.40;;;2.00;;
9224;SDS011;4647;48.072;11.616;2022-09-14T14:46:10;3.50;;;1.80;;
9224;SDS011;4647;48.072;11.616;2022-09-14T14:48:37;4.37;;;1.97;;
9224;SDS011;4647;48.072;11.616;2022-09-14T14:51:04;4.93;;;2.10;;
9224;SDS011;4647;48.072;11.616;2022-09-14T14:53:31;7.17;;;2.00;;
9224;SDS011;4647;48.072;11.616;2022-09-14T14:55:58;2.53;;;1.60;;
9224;SDS011;4647;48.072;11.616;2022-09-14T14:58:25;5.00;;;2.00;;
9224;SDS011;4647;48.072;11.616;2022-09-14T15:00:53;4.43;;;1.93;;
9224;SDS011;4647;48.072;11.616;2022-09-14T15:03:20;5.90;;;2.00;;
9224;SDS011;4647;48.072;11.616;2022-09-14T15:05:47;10.50;;;2.20;;
9224;SDS011;4647;48.072;11.616;2022-09-14T15:08:15;7.73;;;1.90;;
9224;SDS011;4647;48.072;11.616;2022-09-14T15:10:43;5.27;;;2.00;;
9224;SDS011;4647;48.072;11.616;2022-09-14T15:13:11;4.63;;;1.80;;
9224;SDS011;4647;48.072;11.616;2022-09-14T15:15:38;6.40;;;1.93;;
9224;SDS011;4647;48.072;11.616;2022-09-14T15:18:08;5.13;;;2.27;;
9224;SDS011;4647;48.072;11.616;2022-09-14T15:20:35;5.97;;;1.87;;
9224;SDS011;4647;48.072;11.616;2022-09-14T15:23:02;5.60;;;1.93;;
9224;SDS011;4647;48.072;11.616;2022-09-14T15:25:29;6.50;;;2.10;;
9224;SDS011;4647;48.072;11.616;2022-09-14T15:27:57;4.73;;;1.93;;
9224;SDS011;4647;48.072;11.616;2022-09-14T15:30:24;7.10;;;1.87;;
9224;SDS011;4647;48.072;11.616;2022-09-14T15:32:51;6.47;;;2.10;;
9224;SDS011;4647;48.072;11.616;2022-09-14T15:35:19;2.60;;;1.80;;
9224;SDS011;4647;48.072;11.616;2022-09-14T15:37:46;3.13;;;1.80;;
9224;SDS011;4647;48.072;11.616;2022-09-14T15:40:13;4.00;;;2.00;;
9224;SDS011;4647;48.072;11.616;2022-09-14T15:42:40;5.43;;;2.10;;
9224;SDS011;4647;48.072;11.616;2022-09-14T15:45:08;4.93;;;1.60;;